Time;durP1;ratioP1;P1;durP2;ratioP2;P2;SDS_P1;SDS_P2;PMS_P1;PMS_P2;Temp;Humidity;BMP_temperature;BMP_pressure;BME280_temperature;BME280_humidity;BME280_pressure;Samples;Min_cycle;Max_cycle;Signal;HPM_P1;HPM_P2
2023/01/14 00:00:04;;;;;;;9.57;2.53;;;7.30;99.90;;;;;;4900330;29;20050;-76
2023/01/14 00:02:30;;;;;;;8.48;2.63;;;7.20;99.90;;;;;;4920189;29;20525;-75
2023/01/14 00:04:56;;;;;;;9.15;2.22;;;7.20;99.90;;;;;;4922343;29;20381;-75
2023/01/14 00:07:22;;;;;;;9.82;2.25;;;7.20;99.90;;;;;;4915040;29;20072;-75
2023/01/14 00:09:48;;;;;;;11.75;2.45;;;7.20;99.90;;;;;;4903241;29;20059;-75
2023/01/14 00:12:14;;;;;;;11.05;2.85;;;7.20;99.90;;;;;;4921637;29;20106;-75
2023/01/14 00:14:39;;;;;;;9.25;2.00;;;7.20;99.90;;;;;;4921540;29;20043;-75
2023/01/14 00:17:05;;;;;;;10.70;2.45;;;7.20;99.90;;;;;;4904332;29;20055;-74
2023/01/14 00:19:31;;;;;;;5.78;1.77;;;7.20;99.90;;;;;;4905445;29;20043;-75
2023/01/14 00:21:56;;;;;;;12.43;2.97;;;7.20;99.90;;;;;;4938095;29;20051;-75
2023/01/14 00:24:22;;;;;;;9.90;2.33;;;7.20;99.90;;;;;;4916648;29;20413;-75
2023/01/14 00:26:49;;;;;;;8.43;2.15;;;7.30;99.90;;;;;;4897035;29;20067;-75
2023/01/14 00:29:17;;;;;;;9.90;2.75;;;7.30;99.90;;;;;;4921898;29;20146;-75
2023/01/14 00:31:43;;;;;;;8.30;2.10;;;7.30;99.90;;;;;;4921714;29;20492;-74
2023/01/14 00:34:09;;;;;;;9.20;2.25;;;7.40;99.90;;;;;;4914230;29;20039;-75
2023/01/14 00:36:35;;;;;;;8.65;2.15;;;7.40;99.90;;;;;;4919717;29;20098;-75
2023/01/14 00:39:01;;;;;;;8.60;2.05;;;7.30;99.90;;;;;;4902941;29;20444;-75
2023/01/14 00:41:26;;;;;;;6.55;2.05;;;7.40;99.90;;;;;;4946678;29;20496;-75
2023/01/14 00:43:54;;;;;;;8.80;2.45;;;7.40;99.90;;;;;;4903070;29;20719;-75
2023/01/14 00:46:23;;;;;;;8.02;1.75;;;7.40;99.90;;;;;;4904406;29;20483;-75
2023/01/14 00:48:49;;;;;;;5.10;2.00;;;7.40;99.90;;;;;;4920943;29;20052;-75
2023/01/14 00:51:15;;;;;;;7.45;1.80;;;7.40;99.90;;;;;;4921015;29;20055;-75
2023/01/14 00:53:41;;;;;;;6.95;1.80;;;7.40;99.90;;;;;;4912564;29;20110;-75
2023/01/14 00:56:07;;;;;;;6.28;2.10;;;7.40;99.90;;;;;;4902011;29;20130;-75
2023/01/14 00:58:33;;;;;;;7.38;2.10;;;7.40;99.90;;;;;;4938959;28;20125;-75
2023/01/14 01:00:59;;;;;;;6.70;1.75;;;7.40;99.90;;;;;;4908889;29;20048;-74
2023/01/14 01:03:25;;;;;;;6.47;1.75;;;7.40;99.90;;;;;;4912406;29;20678;-75
2023/01/14 01:05:50;;;;;;;10.88;2.38;;;7.50;99.90;;;;;;4897993;29;20048;-74
2023/01/14 01:08:18;;;;;;;7.40;2.05;;;7.50;99.90;;;;;;4920502;29;20493;-75
2023/01/14 01:10:48;;;;;;;10.73;2.00;;;7.50;99.90;;;;;;4902030;29;20052;-74
2023/01/14 01:13:14;;;;;;;9.60;2.20;;;7.60;99.90;;;;;;4918164;29;20083;-75
2023/01/14 01:15:40;;;;;;;8.80;2.60;;;7.60;99.90;;;;;;4889421;29;20425;-75
2023/01/14 01:18:07;;;;;;;8.15;1.98;;;7.50;99.90;;;;;;4920904;29;20051;-74
2023/01/14 01:20:33;;;;;;;3.17;1.35;;;7.60;99.90;;;;;;4921366;29;20050;-74
2023/01/14 01:22:58;;;;;;;8.63;2.10;;;7.60;99.90;;;;;;4936948;29;20544;-74
2023/01/14 01:25:25;;;;;;;10.63;1.90;;;7.60;99.90;;;;;;4921178;29;20781;-76
2023/01/14 01:27:51;;;;;;;12.32;2.40;;;7.50;99.90;;;;;;4904732;29;20051;-77
2023/01/14 01:30:16;;;;;;;10.70;2.10;;;7.50;99.90;;;;;;4903790;29;20376;-75
2023/01/14 01:32:42;;;;;;;7.55;1.77;;;7.50;99.90;;;;;;4920075;29;20063;-77
2023/01/14 01:35:08;;;;;;;10.43;2.10;;;7.50;99.90;;;;;;4920837;29;20105;-76
2023/01/14 01:37:34;;;;;;;11.00;2.00;;;7.50;99.90;;;;;;4909863;29;20082;-76
2023/01/14 01:40:00;;;;;;;7.82;1.70;;;7.40;99.90;;;;;;4893268;29;20087;-77
2023/01/14 01:42:33;;;;;;;8.50;2.15;;;7.40;99.90;;;;;;4919372;29;20615;-75
2023/01/14 01:45:47;;;;;;;7.90;1.95;;;7.40;99.90;;;;;;4922145;29;20048;-76
2023/01/14 01:48:31;;;;;;;6.03;1.50;;;7.40;99.90;;;;;;4929338;29;20107;-76
2023/01/14 01:51:24;;;;;;;5.90;2.00;;;7.40;99.90;;;;;;4908931;29;20044;-76
2023/01/14 01:53:51;;;;;;;8.85;1.73;;;7.50;99.90;;;;;;4913751;29;20226;-77
2023/01/14 01:56:19;;;;;;;10.15;1.50;;;7.40;99.90;;;;;;4898247;29;21073;-76
2023/01/14 01:58:45;;;;;;;5.18;1.35;;;7.40;99.90;;;;;;4920923;29;20043;-77
2023/01/14 02:01:12;;;;;;;8.20;1.70;;;7.40;99.90;;;;;;4921146;29;20721;-76
2023/01/14 02:03:47;;;;;;;7.22;1.70;;;7.40;99.90;;;;;;4909482;29;20044;-76
2023/01/14 02:06:13;;;;;;;7.50;1.88;;;7.40;99.90;;;;;;4895522;29;20671;-77
2023/01/14 02:08:41;;;;;;;7.60;1.75;;;7.40;99.90;;;;;;4913895;29;20441;-76
2023/01/14 02:11:14;;;;;;;11.25;1.88;;;7.40;99.90;;;;;;4933039;29;20134;-77
2023/01/14 02:13:55;;;;;;;7.90;2.05;;;7.30;99.90;;;;;;4936317;29;20654;-76
2023/01/14 02:16:39;;;;;;;10.02;2.22;;;7.40;99.90;;;;;;4935953;29;20104;-76
2023/01/14 02:19:24;;;;;;;8.55;1.58;;;7.40;99.90;;;;;;4936578;29;20126;-76
2023/01/14 02:22:10;;;;;;;11.88;2.15;;;7.40;99.90;;;;;;4937094;29;20043;-76
2023/01/14 02:24:43;;;;;;;10.93;2.33;;;7.30;99.90;;;;;;4899237;29;20487;-76
2023/01/14 02:27:27;;;;;;;6.22;1.48;;;7.30;99.90;;;;;;4922749;29;20048;-76
2023/01/14 02:30:25;;;;;;;10.05;2.20;;;7.30;99.90;;;;;;4935568;29;20399;-77
2023/01/14 02:32:54;;;;;;;7.10;1.83;;;7.30;99.90;;;;;;4903226;29;20047;-76
2023/01/14 02:35:31;;;;;;;6.13;1.73;;;7.30;99.90;;;;;;4920269;29;20043;-75
2023/01/14 02:38:04;;;;;;;9.32;2.35;;;7.30;99.90;;;;;;4932991;29;20075;-77
2023/01/14 02:40:53;;;;;;;7.80;1.80;;;7.20;99.90;;;;;;4915175;29;20610;-78
2023/01/14 02:46:45;;;;;;;10.25;2.22;;;7.20;99.90;;;;;;4916595;29;20552;-77
2023/01/14 02:49:20;;;;;;;11.10;2.35;;;7.20;99.90;;;;;;4929084;29;20051;-77
2023/01/14 02:51:46;;;;;;;10.10;2.08;;;7.10;99.90;;;;;;4935861;29;20188;-77
2023/01/14 02:54:12;;;;;;;11.27;2.42;;;7.20;99.90;;;;;;4919315;29;20080;-77
2023/01/14 02:56:38;;;;;;;10.40;2.15;;;7.20;99.90;;;;;;4924273;29;20047;-76
2023/01/14 02:59:06;;;;;;;9.05;1.92;;;7.20;99.90;;;;;;4910751;29;20048;-77
2023/01/14 03:01:40;;;;;;;9.95;2.25;;;7.20;99.90;;;;;;4931297;29;20058;-76
2023/01/14 03:04:27;;;;;;;10.50;2.40;;;7.20;99.90;;;;;;4919641;29;20051;-77
2023/01/14 03:06:56;;;;;;;9.65;2.22;;;7.20;99.90;;;;;;4933242;29;20048;-76
2023/01/14 03:09:40;;;;;;;13.07;2.55;;;7.10;99.90;;;;;;4929428;29;20158;-76
2023/01/14 03:12:31;;;;;;;11.80;2.13;;;7.10;99.90;;;;;;4916676;29;20055;-77
2023/01/14 03:14:59;;;;;;;9.48;2.13;;;7.10;99.90;;;;;;4930144;29;20782;-77
2023/01/14 03:17:35;;;;;;;10.82;2.20;;;7.10;99.90;;;;;;4913327;29;20086;-77
2023/01/14 03:20:06;;;;;;;13.15;2.30;;;7.20;99.90;;;;;;4913394;29;20044;-76
2023/01/14 03:22:31;;;;;;;12.27;2.08;;;7.20;99.90;;;;;;4911371;29;20084;-77
2023/01/14 03:24:57;;;;;;;9.43;2.35;;;7.20;99.90;;;;;;4910502;29;20079;-76
2023/01/14 03:27:24;;;;;;;8.60;2.10;;;7.20;99.90;;;;;;4899323;29;20051;-77
2023/01/14 03:29:53;;;;;;;9.95;2.35;;;7.20;99.90;;;;;;4935501;29;20467;-76
2023/01/14 03:32:24;;;;;;;9.63;1.80;;;7.20;99.90;;;;;;4925231;29;20345;-77
2023/01/14 03:34:56;;;;;;;10.18;1.83;;;7.30;99.90;;;;;;4930245;29;20063;-76
2023/01/14 03:37:22;;;;;;;10.75;2.20;;;7.30;99.90;;;;;;4914807;29;20078;-77
2023/01/14 03:39:51;;;;;;;9.93;1.80;;;7.30;99.90;;;;;;4914000;29;20457;-76
2023/01/14 03:42:19;;;;;;;9.13;1.88;;;7.30;99.90;;;;;;4908524;29;20524;-78
2023/01/14 03:45:08;;;;;;;11.20;2.53;;;7.40;99.90;;;;;;4917070;29;20051;-77
2023/01/14 03:47:34;;;;;;;10.20;2.15;;;7.40;99.90;;;;;;4919644;29;20043;-77
2023/01/14 03:50:02;;;;;;;10.20;2.28;;;7.30;99.90;;;;;;4904593;29;20502;-77
2023/01/14 03:52:54;;;;;;;13.73;2.23;;;7.30;99.90;;;;;;4916356;29;20587;-76
2023/01/14 03:55:36;;;;;;;10.40;2.20;;;7.30;99.90;;;;;;4918509;29;20390;-77
2023/01/14 03:58:04;;;;;;;12.00;2.92;;;7.40;99.90;;;;;;4921536;29;20043;-77
2023/01/14 04:00:54;;;;;;;11.27;2.20;;;7.30;99.90;;;;;;4919405;29;20102;-75
2023/01/14 04:03:20;;;;;;;13.02;3.05;;;7.30;99.90;;;;;;4935912;29;20650;-77
2023/01/14 04:05:46;;;;;;;10.45;2.10;;;7.40;99.90;;;;;;4917063;29;20047;-76
2023/01/14 04:08:11;;;;;;;11.95;2.28;;;7.40;99.90;;;;;;4904224;29;20052;-77
2023/01/14 04:10:37;;;;;;;9.77;2.90;;;7.40;99.90;;;;;;4913882;29;20591;-77
2023/01/14 04:15:47;;;;;;;14.70;3.00;;;7.40;99.90;;;;;;4918398;29;20056;-77
2023/01/14 04:18:13;;;;;;;14.07;2.78;;;7.50;99.90;;;;;;4920749;29;20472;-77
2023/01/14 04:20:38;;;;;;;14.43;3.90;;;7.50;99.90;;;;;;4920511;29;20523;-77
2023/01/14 04:23:04;;;;;;;11.80;2.80;;;7.50;99.90;;;;;;4904561;29;20054;-76
2023/01/14 04:25:30;;;;;;;19.60;2.97;;;7.40;99.90;;;;;;4904546;29;20465;-77
2023/01/14 04:27:56;;;;;;;16.75;3.97;;;7.50;99.90;;;;;;4892800;29;20152;-75
2023/01/14 04:30:21;;;;;;;15.80;3.40;;;7.50;99.90;;;;;;4919937;29;20062;-76
2023/01/14 04:32:47;;;;;;;13.00;2.85;;;7.50;99.90;;;;;;4901903;29;20044;-77
2023/01/14 04:35:13;;;;;;;13.20;2.90;;;7.40;99.90;;;;;;4904311;29;20629;-77
2023/01/14 04:37:39;;;;;;;15.65;3.53;;;7.50;99.90;;;;;;4920134;29;20058;-75
2023/01/14 04:40:05;;;;;;;11.60;3.47;;;7.40;99.90;;;;;;4907920;29;20083;-77
2023/01/14 04:42:31;;;;;;;15.60;3.40;;;7.40;99.90;;;;;;4918989;29;20135;-77
2023/01/14 04:44:58;;;;;;;14.63;3.50;;;7.40;99.90;;;;;;4921152;29;20164;-78
2023/01/14 04:47:24;;;;;;;13.82;3.08;;;7.40;99.90;;;;;;4942849;29;20110;-76
2023/01/14 04:49:50;;;;;;;16.00;3.40;;;7.40;99.90;;;;;;4921504;29;20515;-77
2023/01/14 04:52:16;;;;;;;14.13;3.10;;;7.40;99.90;;;;;;4915909;29;20051;-75
2023/01/14 04:54:42;;;;;;;16.05;3.08;;;7.40;99.90;;;;;;4902277;29;20178;-77
2023/01/14 04:57:08;;;;;;;6.97;2.85;;;7.40;99.90;;;;;;4903924;29;20456;-77
2023/01/14 04:59:34;;;;;;;11.88;3.70;;;7.40;99.90;;;;;;4940564;29;20044;-76
2023/01/14 05:01:59;;;;;;;10.65;3.05;;;7.40;99.90;;;;;;4915031;29;20043;-77
2023/01/14 05:04:26;;;;;;;10.18;2.80;;;7.30;99.90;;;;;;4911884;29;20617;-77
2023/01/14 05:06:53;;;;;;;12.48;3.22;;;7.30;99.90;;;;;;4895616;29;20047;-76
2023/01/14 05:09:19;;;;;;;13.02;3.10;;;7.30;99.90;;;;;;4918202;29;20083;-76
2023/01/14 05:11:45;;;;;;;14.43;3.33;;;7.30;99.90;;;;;;4903881;29;20086;-76
2023/01/14 05:14:11;;;;;;;21.60;3.60;;;7.30;99.90;;;;;;4904107;29;20051;-76
2023/01/14 05:16:37;;;;;;;15.80;3.60;;;7.20;99.90;;;;;;4917593;29;20567;-77
2023/01/14 05:19:02;;;;;;;18.40;3.55;;;7.20;99.90;;;;;;4893596;29;20118;-77
2023/01/14 05:21:28;;;;;;;14.75;3.72;;;7.10;99.90;;;;;;4920452;29;20043;-76
2023/01/14 05:23:54;;;;;;;13.02;3.95;;;7.10;99.90;;;;;;4915002;29;20122;-75
2023/01/14 05:26:20;;;;;;;19.67;4.10;;;7.10;99.90;;;;;;4916997;29;20135;-77
2023/01/14 05:28:45;;;;;;;12.45;3.20;;;7.10;99.90;;;;;;4907082;29;20498;-76
2023/01/14 05:31:11;;;;;;;15.60;4.47;;;7.10;99.90;;;;;;4920864;29;20413;-76
2023/01/14 05:33:37;;;;;;;17.92;3.65;;;7.00;99.90;;;;;;4905039;29;20051;-76
2023/01/14 05:36:03;;;;;;;15.85;3.88;;;7.00;99.90;;;;;;4943451;28;20380;-77
2023/01/14 05:38:29;;;;;;;11.38;3.53;;;7.00;99.90;;;;;;4914194;29;20053;-77
2023/01/14 05:40:55;;;;;;;14.93;4.10;;;6.90;99.90;;;;;;4895435;29;20151;-76
2023/01/14 05:46:06;;;;;;;16.95;4.45;;;7.00;99.90;;;;;;4922234;29;20047;-76
2023/01/14 05:48:32;;;;;;;23.10;4.45;;;7.00;99.90;;;;;;4921559;29;20048;-76
2023/01/14 05:50:58;;;;;;;16.92;3.78;;;6.90;99.90;;;;;;4907983;29;20134;-77
2023/01/14 05:53:25;;;;;;;20.10;4.03;;;6.90;99.90;;;;;;4902765;29;20051;-77
2023/01/14 05:55:51;;;;;;;14.82;3.85;;;6.90;99.90;;;;;;4904537;29;20452;-76
2023/01/14 05:58:17;;;;;;;17.90;4.13;;;7.00;99.90;;;;;;4920898;29;20122;-76
2023/01/14 06:06:23;;;;;;;13.00;3.25;;;7.00;99.90;;;;;;4922749;29;20063;-76
2023/01/14 06:08:55;;;;;;;20.10;4.97;;;7.00;99.90;;;;;;4915231;29;20039;-76
2023/01/14 06:11:24;;;;;;;13.23;3.40;;;7.10;99.90;;;;;;4936372;29;20051;-77
2023/01/14 06:13:52;;;;;;;24.20;4.00;;;7.10;99.90;;;;;;4900320;29;20495;-77
2023/01/14 06:16:18;;;;;;;21.67;5.07;;;7.10;99.90;;;;;;4920569;29;20091;-76
2023/01/14 06:18:44;;;;;;;24.95;4.13;;;7.10;99.90;;;;;;4921019;29;20103;-78
2023/01/14 06:21:14;;;;;;;20.55;3.47;;;7.10;99.90;;;;;;4920822;29;20330;-78
2023/01/14 06:23:40;;;;;;;13.98;3.53;;;7.10;99.90;;;;;;4921029;29;20039;-78
2023/01/14 06:26:10;;;;;;;20.33;4.50;;;7.10;99.90;;;;;;4904980;29;20138;-76
2023/01/14 06:28:36;;;;;;;20.52;3.35;;;7.10;99.90;;;;;;4920170;29;20369;-77
2023/01/14 06:31:02;;;;;;;20.08;5.10;;;7.00;99.90;;;;;;4920616;29;20054;-76
2023/01/14 06:33:27;;;;;;;14.10;3.72;;;7.00;99.90;;;;;;4919992;29;20066;-75
2023/01/14 06:35:55;;;;;;;18.40;4.10;;;6.90;99.90;;;;;;4903634;29;20094;-75
2023/01/14 06:38:21;;;;;;;19.83;4.15;;;6.90;99.90;;;;;;4905307;29;20075;-76
2023/01/14 06:40:47;;;;;;;18.25;3.97;;;6.90;99.90;;;;;;4904948;29;20047;-77
2023/01/14 06:43:13;;;;;;;18.88;3.78;;;6.90;99.90;;;;;;4920890;29;20050;-76
2023/01/14 06:45:39;;;;;;;14.35;3.40;;;6.90;99.90;;;;;;4904218;29;20055;-76
2023/01/14 06:48:04;;;;;;;22.75;3.22;;;6.90;99.90;;;;;;4905026;29;20047;-76
2023/01/14 06:50:30;;;;;;;17.67;3.53;;;6.90;99.90;;;;;;4935949;29;20046;-76
2023/01/14 06:53:02;;;;;;;20.85;3.70;;;6.90;99.90;;;;;;4919841;29;20047;-77
2023/01/14 06:55:28;;;;;;;18.17;3.95;;;6.90;99.90;;;;;;4929305;29;20040;-76
2023/01/14 06:57:54;;;;;;;18.60;4.00;;;6.90;99.90;;;;;;4903980;29;20476;-77
2023/01/14 07:00:20;;;;;;;27.50;4.53;;;6.90;99.90;;;;;;4920085;29;20036;-77
2023/01/14 07:02:46;;;;;;;20.52;4.18;;;6.80;99.90;;;;;;4913526;29;20043;-77
2023/01/14 07:05:11;;;;;;;17.27;3.47;;;6.80;99.90;;;;;;4905154;29;20428;-77
2023/01/14 07:07:37;;;;;;;14.82;3.67;;;6.70;99.90;;;;;;4903881;29;20050;-75
2023/01/14 07:10:03;;;;;;;23.70;3.65;;;6.70;99.90;;;;;;4922433;29;20070;-75
2023/01/14 07:12:29;;;;;;;19.40;4.35;;;6.70;99.90;;;;;;4924096;29;20370;-75
2023/01/14 07:14:55;;;;;;;14.98;3.85;;;6.70;99.90;;;;;;4939156;29;20138;-75
2023/01/14 07:17:20;;;;;;;13.45;2.88;;;6.70;99.90;;;;;;4923116;29;20476;-75
2023/01/14 07:19:46;;;;;;;12.82;3.80;;;6.70;99.90;;;;;;4925786;29;20082;-75
2023/01/14 07:22:12;;;;;;;14.30;3.63;;;6.70;99.90;;;;;;4923621;29;20131;-75
2023/01/14 07:24:37;;;;;;;14.40;3.22;;;6.60;99.90;;;;;;4939643;29;20047;-75
2023/01/14 07:27:04;;;;;;;17.92;3.55;;;6.60;99.90;;;;;;4916217;29;20043;-74
2023/01/14 07:29:30;;;;;;;18.98;4.07;;;6.60;99.90;;;;;;4905611;29;20055;-75
2023/01/14 07:31:56;;;;;;;15.93;3.28;;;6.60;99.90;;;;;;4920208;29;20050;-76
2023/01/14 07:34:22;;;;;;;12.77;3.13;;;6.60;99.90;;;;;;4915566;29;20047;-75
2023/01/14 07:36:48;;;;;;;18.92;2.72;;;6.60;99.90;;;;;;4906621;29;20081;-75
2023/01/14 07:39:13;;;;;;;17.67;2.92;;;6.60;99.90;;;;;;4938190;29;20454;-75
2023/01/14 07:41:39;;;;;;;12.05;2.22;;;6.60;99.90;;;;;;4928406;29;20499;-75
2023/01/14 07:44:05;;;;;;;10.63;2.95;;;6.60;99.90;;;;;;4916807;29;20058;-76
2023/01/14 07:46:32;;;;;;;14.50;2.88;;;6.60;99.90;;;;;;4919352;29;20047;-76
2023/01/14 07:48:58;;;;;;;12.27;2.90;;;6.70;99.90;;;;;;4926254;29;20118;-76
2023/01/14 07:51:24;;;;;;;13.60;2.85;;;6.80;99.90;;;;;;4922500;29;20047;-76
2023/01/14 07:53:50;;;;;;;15.20;2.67;;;6.70;99.90;;;;;;4907033;29;20059;-77
2023/01/14 07:56:16;;;;;;;14.73;2.75;;;6.70;99.90;;;;;;4922740;29;20066;-77
2023/01/14 07:58:42;;;;;;;18.63;3.38;;;6.70;99.90;;;;;;4923293;29;20047;-76
2023/01/14 08:01:09;;;;;;;11.30;2.88;;;6.80;99.90;;;;;;4907312;29;20055;-75
2023/01/14 08:03:35;;;;;;;13.98;2.83;;;6.80;99.90;;;;;;4938915;29;20122;-75
2023/01/14 08:06:01;;;;;;;20.50;3.58;;;6.80;99.90;;;;;;4900798;29;20138;-75
2023/01/14 08:08:27;;;;;;;13.40;2.60;;;6.80;99.90;;;;;;4912827;29;20040;-75
2023/01/14 08:10:53;;;;;;;11.23;2.60;;;6.70;99.90;;;;;;4919025;29;20058;-76
2023/01/14 08:13:19;;;;;;;12.52;2.72;;;6.80;99.90;;;;;;4938630;29;20047;-76
2023/01/14 08:15:45;;;;;;;13.50;2.75;;;6.80;99.90;;;;;;4906212;29;20092;-75
2023/01/14 08:18:10;;;;;;;11.20;2.65;;;6.70;99.90;;;;;;4922683;29;20392;-76
2023/01/14 08:20:39;;;;;;;11.80;3.08;;;6.80;99.90;;;;;;4939681;29;20069;-76
2023/01/14 08:23:05;;;;;;;14.48;3.03;;;6.80;99.90;;;;;;4923501;29;20126;-76
2023/01/14 08:25:33;;;;;;;14.23;3.50;;;6.80;99.90;;;;;;4907014;29;20135;-76
2023/01/14 08:27:59;;;;;;;;;;;6.80;99.90;;;;;;4919005;29;20481;-75
2023/01/14 08:30:24;;;;;;;14.60;2.88;;;6.80;99.90;;;;;;4937740;29;19919;-76
2023/01/14 08:32:50;;;;;;;14.50;2.95;;;6.80;99.90;;;;;;4922264;29;20040;-76
2023/01/14 08:35:16;;;;;;;13.88;2.67;;;6.80;99.90;;;;;;4902236;29;20090;-76
2023/01/14 08:37:42;;;;;;;16.98;2.63;;;6.80;99.90;;;;;;4901658;29;20086;-75
2023/01/14 08:40:09;;;;;;;18.42;3.83;;;6.80;99.90;;;;;;4921133;29;20082;-76
2023/01/14 08:42:35;;;;;;;14.77;2.60;;;6.90;99.90;;;;;;4921710;29;20110;-76
2023/01/14 08:45:00;;;;;;;13.88;3.00;;;6.90;99.90;;;;;;4936707;29;20385;-76
2023/01/14 08:47:28;;;;;;;17.73;3.08;;;6.90;99.90;;;;;;4922123;29;20050;-75
2023/01/14 08:49:54;;;;;;;17.77;2.80;;;6.90;99.90;;;;;;4904429;29;20047;-77
2023/01/14 08:52:20;;;;;;;12.75;2.22;;;6.90;99.90;;;;;;4898986;29;20055;-77
2023/01/14 08:54:46;;;;;;;11.82;3.28;;;7.00;99.90;;;;;;4905654;29;20051;-75
2023/01/14 08:57:12;;;;;;;15.10;2.65;;;6.90;99.90;;;;;;4915429;29;20052;-76
2023/01/14 08:59:38;;;;;;;11.75;2.95;;;7.00;99.90;;;;;;4895717;29;20036;-75
2023/01/14 09:02:04;;;;;;;13.35;2.88;;;7.00;99.90;;;;;;4898396;29;20047;-77
2023/01/14 09:04:30;;;;;;;15.65;2.72;;;7.00;99.90;;;;;;4916926;29;20378;-76
2023/01/14 09:17:57;;;;;;;15.45;2.78;;;7.10;99.90;;;;;;4919944;29;20476;-76
2023/01/14 09:20:25;;;;;;;14.65;3.17;;;7.10;99.90;;;;;;4907050;29;20046;-77
2023/01/14 09:22:50;;;;;;;15.18;3.60;;;7.10;99.90;;;;;;4888305;29;20063;-76
2023/01/14 09:25:16;;;;;;;14.50;2.97;;;7.20;99.90;;;;;;4932254;29;20082;-77
2023/01/14 09:27:42;;;;;;;17.05;3.20;;;7.20;99.90;;;;;;4896851;29;20441;-76
2023/01/14 09:30:08;;;;;;;12.15;3.38;;;7.20;99.90;;;;;;4920676;29;20069;-76
2023/01/14 09:32:40;;;;;;;16.95;2.60;;;7.20;99.90;;;;;;4936143;29;20040;-76
2023/01/14 09:35:07;;;;;;;23.27;3.42;;;7.20;99.90;;;;;;4920239;29;20052;-76
2023/01/14 09:37:33;;;;;;;21.88;3.65;;;7.20;99.90;;;;;;4920178;29;20480;-77
2023/01/14 09:39:59;;;;;;;13.77;2.55;;;7.20;99.90;;;;;;4920773;29;20067;-77
2023/01/14 09:42:31;;;;;;;18.50;3.20;;;7.20;99.90;;;;;;4919583;29;20428;-75
2023/01/14 09:45:10;;;;;;;16.20;2.75;;;7.20;99.90;;;;;;4913630;29;20041;-77
2023/01/14 09:47:36;;;;;;;16.77;2.65;;;7.30;99.90;;;;;;4923127;29;20059;-76
2023/01/14 09:50:05;;;;;;;16.50;3.22;;;7.30;99.90;;;;;;4920132;29;20921;-77
2023/01/14 09:52:49;;;;;;;13.73;2.75;;;7.30;99.90;;;;;;4920018;29;20452;-76
2023/01/14 09:55:45;;;;;;;14.98;3.13;;;7.30;99.90;;;;;;4922142;29;20091;-76
2023/01/14 09:58:34;;;;;;;16.63;2.78;;;7.30;99.90;;;;;;4925190;29;20051;-76
2023/01/14 10:01:06;;;;;;;15.18;3.05;;;7.30;99.90;;;;;;4907310;29;20338;-76
2023/01/14 10:03:57;;;;;;;13.63;2.60;;;7.30;99.90;;;;;;4945771;29;20110;-75
2023/01/14 10:06:22;;;;;;;15.13;2.92;;;7.30;99.90;;;;;;4931506;29;20126;-76
2023/01/14 10:08:56;;;;;;;16.75;2.83;;;7.30;99.90;;;;;;4904871;29;20489;-77
2023/01/14 10:11:22;;;;;;;14.45;3.13;;;7.30;99.90;;;;;;4919998;29;20052;-76
2023/01/14 10:13:53;;;;;;;16.05;3.75;;;7.40;99.90;;;;;;4918449;29;20043;-75
2023/01/14 10:16:34;;;;;;;19.73;2.75;;;7.40;99.90;;;;;;4933863;29;20076;-75
2023/01/14 10:19:12;;;;;;;17.05;3.22;;;7.40;99.90;;;;;;4913986;29;20098;-75
2023/01/14 10:21:41;;;;;;;14.65;2.75;;;7.40;99.90;;;;;;4933372;29;20062;-75
2023/01/14 10:24:13;;;;;;;18.27;3.42;;;7.40;99.90;;;;;;4924258;29;20048;-76
2023/01/14 10:26:39;;;;;;;13.05;2.55;;;7.50;99.90;;;;;;4898908;29;20043;-75
2023/01/14 10:29:19;;;;;;;12.90;2.58;;;7.50;99.90;;;;;;4903662;29;20066;-75
2023/01/14 10:31:50;;;;;;;13.00;2.38;;;7.50;99.90;;;;;;4899155;29;20055;-76
2023/01/14 10:34:20;;;;;;;17.17;3.63;;;7.50;99.90;;;;;;4920431;29;20055;-75
2023/01/14 10:36:46;;;;;;;15.10;2.83;;;7.50;99.90;;;;;;4918221;29;20487;-75
2023/01/14 10:39:12;;;;;;;13.15;3.00;;;7.50;99.90;;;;;;4920035;29;20048;-76
2023/01/14 10:41:50;;;;;;;18.95;3.03;;;7.50;99.90;;;;;;4919765;29;20039;-75
2023/01/14 10:44:43;;;;;;;14.60;3.08;;;7.50;99.90;;;;;;4921502;29;20122;-75
2023/01/14 10:47:13;;;;;;;15.25;3.30;;;7.50;99.90;;;;;;4920932;29;20072;-74
2023/01/14 10:49:43;;;;;;;9.63;2.50;;;7.50;99.90;;;;;;4904207;29;20059;-75
2023/01/14 10:52:25;;;;;;;15.80;2.63;;;7.60;99.90;;;;;;4928922;29;20043;-75
2023/01/14 10:54:57;;;;;;;12.35;2.75;;;7.60;99.90;;;;;;4930411;29;20377;-75
2023/01/14 10:57:22;;;;;;;17.08;2.70;;;7.60;99.90;;;;;;4920020;29;20048;-75
2023/01/14 10:59:55;;;;;;;13.27;2.88;;;7.60;99.90;;;;;;4919200;29;20095;-76
2023/01/14 11:02:35;;;;;;;13.55;2.47;;;7.70;99.90;;;;;;4920173;29;20039;-75
2023/01/14 11:05:25;;;;;;;14.85;2.75;;;7.70;99.90;;;;;;4922170;29;20424;-76
2023/01/14 11:07:51;;;;;;;13.45;2.80;;;7.60;99.90;;;;;;4915148;29;20126;-76
2023/01/14 11:10:22;;;;;;;20.30;2.90;;;7.60;99.90;;;;;;4936061;29;20476;-76
2023/01/14 11:12:48;;;;;;;10.82;2.20;;;7.60;99.90;;;;;;4920372;29;20083;-77
2023/01/14 11:15:36;;;;;;;13.50;2.80;;;7.50;99.90;;;;;;4918616;29;20087;-77
2023/01/14 11:18:25;;;;;;;13.82;2.80;;;7.50;99.90;;;;;;4948431;28;20044;-76
2023/01/14 11:21:23;;;;;;;15.38;2.30;;;7.50;99.90;;;;;;4931924;29;20070;-77
2023/01/14 11:23:55;;;;;;;15.63;2.78;;;7.50;99.90;;;;;;4903172;29;20044;-78
2023/01/14 11:26:32;;;;;;;11.00;2.85;;;7.50;99.90;;;;;;4919154;29;20055;-77
2023/01/14 11:29:23;;;;;;;11.30;2.30;;;7.50;99.90;;;;;;4902732;29;20075;-76
2023/01/14 11:31:50;;;;;;;14.15;2.47;;;7.50;99.90;;;;;;4917286;29;20053;-76
2023/01/14 11:34:31;;;;;;;10.63;2.63;;;7.40;99.90;;;;;;4902749;29;20039;-76
2023/01/14 11:37:02;;;;;;;12.68;2.90;;;7.40;99.90;;;;;;4919338;29;20054;-76
2023/01/14 11:39:28;;;;;;;15.05;3.15;;;7.40;99.90;;;;;;4919387;29;20373;-74
2023/01/14 11:41:54;;;;;;;11.23;2.30;;;7.30;99.90;;;;;;4916995;29;20046;-74
2023/01/14 11:44:22;;;;;;;17.63;3.88;;;7.30;99.90;;;;;;4917346;29;20730;-74
2023/01/14 11:47:12;;;;;;;15.93;3.65;;;7.20;99.90;;;;;;4916616;29;20062;-73
2023/01/14 11:49:38;;;;;;;15.60;3.15;;;7.20;99.90;;;;;;4908864;29;20052;-73
2023/01/14 11:52:05;;;;;;;11.38;2.92;;;7.10;99.90;;;;;;4922195;29;20043;-73
2023/01/14 11:54:36;;;;;;;12.93;2.80;;;7.20;99.90;;;;;;4930749;29;20086;-73
2023/01/14 11:57:03;;;;;;;12.40;2.55;;;7.20;99.90;;;;;;4914654;29;20053;-72
2023/01/14 11:59:34;;;;;;;13.85;2.92;;;7.20;99.90;;;;;;4930825;29;20044;-73
2023/01/14 12:02:19;;;;;;;13.38;2.70;;;7.20;99.90;;;;;;4965502;28;20126;-74
2023/01/14 12:04:50;;;;;;;15.50;2.75;;;7.30;99.90;;;;;;4918904;29;20059;-73
2023/01/14 12:07:29;;;;;;;13.40;2.88;;;7.30;99.90;;;;;;4910290;29;20540;-75
2023/01/14 12:10:19;;;;;;;21.13;2.80;;;7.30;99.90;;;;;;4909772;29;20055;-75
2023/01/14 12:18:26;;;;;;;12.10;2.45;;;7.30;99.90;;;;;;4930758;29;20047;-74
2023/01/14 12:20:52;;;;;;;11.90;2.90;;;7.30;99.90;;;;;;4903631;29;20050;-74
2023/01/14 12:23:19;;;;;;;14.98;2.90;;;7.30;99.90;;;;;;4916594;29;20044;-74
2023/01/14 12:25:46;;;;;;;12.27;2.20;;;7.40;99.90;;;;;;4931212;29;20043;-74
2023/01/14 12:28:29;;;;;;;13.60;2.47;;;7.40;99.90;;;;;;4911248;29;20584;-73
2023/01/14 12:31:02;;;;;;;11.07;2.10;;;7.50;99.90;;;;;;4926680;29;20052;-74
2023/01/14 12:33:31;;;;;;;9.38;2.20;;;7.50;99.90;;;;;;4914901;29;20461;-73
2023/01/14 12:36:08;;;;;;;11.23;2.15;;;7.50;99.90;;;;;;4913680;29;20461;-75
2023/01/14 12:47:34;;;;;;;12.15;2.42;;;7.50;99.90;;;;;;4923462;29;20547;-76
2023/01/14 12:50:08;;;;;;;12.90;2.80;;;7.60;99.90;;;;;;4897062;29;20062;-73
2023/01/14 12:52:35;;;;;;;10.02;2.15;;;7.60;99.90;;;;;;4919317;29;20110;-76
2023/01/14 12:55:02;;;;;;;10.60;2.00;;;7.60;99.90;;;;;;4903550;29;20054;-76
2023/01/14 12:57:28;;;;;;;12.35;2.63;;;7.50;99.90;;;;;;4917757;29;20055;-76
2023/01/14 13:00:21;;;;;;;14.65;3.00;;;7.50;99.90;;;;;;4897174;29;20054;-76
2023/01/14 13:02:47;;;;;;;11.85;2.50;;;7.50;99.90;;;;;;4918369;29;20449;-75
2023/01/14 13:05:16;;;;;;;13.48;3.25;;;7.50;99.90;;;;;;4921672;29;20123;-76
2023/01/14 13:07:55;;;;;;;10.10;2.63;;;7.50;99.90;;;;;;4916883;29;20043;-77
2023/01/14 13:10:32;;;;;;;13.63;3.25;;;7.60;99.90;;;;;;4936554;29;20051;-75
2023/01/14 13:12:59;;;;;;;14.15;2.47;;;7.50;99.90;;;;;;4910908;29;20054;-75
2023/01/14 13:15:31;;;;;;;15.90;2.97;;;7.50;99.90;;;;;;4918578;29;20384;-75
2023/01/14 13:17:58;;;;;;;9.90;2.63;;;7.50;99.90;;;;;;4931951;29;20139;-75
2023/01/14 13:20:32;;;;;;;9.07;1.73;;;7.50;99.90;;;;;;4919576;29;20058;-75
2023/01/14 13:23:01;;;;;;;8.00;1.70;;;7.60;99.90;;;;;;4927206;29;20051;-76
2023/01/14 13:25:53;;;;;;;6.85;1.52;;;7.50;99.90;;;;;;4915238;29;20059;-75
2023/01/14 13:28:19;;;;;;;8.45;1.52;;;7.60;99.90;;;;;;4913664;29;20066;-76
2023/01/14 13:31:14;;;;;;;9.68;1.52;;;7.50;99.90;;;;;;4931558;29;20060;-75
2023/01/14 13:33:40;;;;;;;5.95;1.50;;;7.50;99.90;;;;;;4915286;29;20082;-75
2023/01/14 13:36:06;;;;;;;6.93;1.92;;;7.50;99.90;;;;;;4917073;29;20066;-75
2023/01/14 13:38:32;;;;;;;8.82;1.80;;;7.50;99.90;;;;;;4930655;29;20576;-75
2023/01/14 13:41:06;;;;;;;5.55;1.33;;;7.50;99.90;;;;;;4891921;29;20044;-75
2023/01/14 13:43:51;;;;;;;8.15;1.70;;;7.50;99.90;;;;;;4922147;29;20052;-76